Time,TemperatureF,DewpointF,PressureIn,WindDirection,WindDirectionDegrees,WindSpeedMPH,WindSpeedGustMPH,Humidity,HourlyPrecipIn,Conditions,Clouds,dailyrainin,SoftwareType,DateUTC
2013-08-28 00:10:00,79.1,75.0,29.77,West,265,0.0,-999.0,87,-99.99,,,0.00,weatherlink.com 1.10,2013-08-28 05:10:00,
2013-08-28 00:25:00,78.9,75.0,29.77,West,265,0.0,-999.0,87,-99.99,,,0.00,weatherlink.com 1.10,2013-08-28 05:25:00,
2013-08-28 00:40:00,78.7,75.0,29.77,West,265,0.0,-999.0,87,-99.99,,,0.00,weatherlink.com 1.10,2013-08-28 05:40:00,
2013-08-28 00:55:00,78.2,74.0,29.77,West,265,0.0,-999.0,88,-99.99,,,0.00,weatherlink.com 1.10,2013-08-28 05:55:00,
2013-08-28 01:10:00,78.0,75.0,29.77,West,265,0.0,-999.0,89,-99.99,,,0.00,weatherlink.com 1.10,2013-08-28 06:10:00,
2013-08-28 01:25:00,77.8,74.0,29.77,West,265,0.0,-999.0,89,-99.99,,,0.00,weatherlink.com 1.10,2013-08-28 06:25:00,
2013-08-28 01:40:00,77.5,74.0,29.77,West,265,0.0,-999.0,89,-99.99,,,0.00,weatherlink.com 1.10,2013-08-28 06:40:00,
2013-08-28 01:55:00,77.3,74.0,29.76,West,265,0.0,-999.0,89,-99.99,,,0.00,weatherlink.com 1.10,2013-08-28 06:55:00,
2013-08-28 02:10:00,77.0,74.0,29.76,West,265,0.0,-999.0,90,-99.99,,,0.00,weatherlink.com 1.10,2013-08-28 07:10:00,
2013-08-28 02:25:00,76.8,74.0,29.77,West,265,0.0,-999.0,91,-99.99,,,0.00,weatherlink.com 1.10,2013-08-28 07:25:00,
2013-08-28 02:40:00,76.6,74.0,29.77,West,265,0.0,-999.0,91,-99.99,,,0.00,weatherlink.com 1.10,2013-08-28 07:40:00,
2013-08-28 02:55:00,76.4,73.0,29.78,North,354,0.0,-999.0,90,-99.99,,,0.00,weatherlink.com 1.10,2013-08-28 07:55:00,
2013-08-28 03:10:00,76.1,73.0,29.78,NW,307,0.0,-999.0,89,-99.99,,,0.00,weatherlink.com 1.10,2013-08-28 08:10:00,
2013-08-28 03:25:00,75.7,73.0,29.79,West,266,0.0,-999.0,90,-99.99,,,0.00,weatherlink.com 1.10,2013-08-28 08:25:00,
2013-08-28 03:40:00,75.4,73.0,29.79,West,259,0.0,-999.0,91,-99.99,,,0.00,weatherlink.com 1.10,2013-08-28 08:40:00,
2013-08-28 03:55:00,75.3,73.0,29.80,NW,310,0.0,-999.0,91,-99.99,,,0.00,weatherlink.com 1.10,2013-08-28 08:55:00,
2013-08-28 04:10:00,75.3,73.0,29.80,WNW,291,0.0,-999.0,92,-99.99,,,0.00,weatherlink.com 1.10,2013-08-28 09:10:00,
2013-08-28 04:25:00,75.3,73.0,29.81,WNW,291,0.0,-999.0,92,-99.99,,,0.00,weatherlink.com 1.10,2013-08-28 09:25:00,
2013-08-28 04:40:00,75.3,73.0,29.82,North,4,0.0,-999.0,92,-99.99,,,0.00,weatherlink.com 1.10,2013-08-28 09:40:00,
2013-08-28 04:55:00,75.0,73.0,29.82,West,279,0.0,-999.0,92,-99.99,,,0.00,weatherlink.com 1.10,2013-08-28 09:55:00,
2013-08-28 05:10:00,74.7,72.0,29.83,NNW,344,0.0,-999.0,92,-99.99,,,0.00,weatherlink.com 1.10,2013-08-28 10:10:00,
2013-08-28 05:25:00,74.5,72.0,29.83,NNW,344,0.0,-999.0,93,-99.99,,,0.00,weatherlink.com 1.10,2013-08-28 10:25:00,
2013-08-28 05:41:00,74.3,72.0,29.84,NNW,336,0.0,-999.0,93,-99.99,,,0.00,weatherlink.com 1.10,2013-08-28 10:41:00,
2013-08-28 05:56:00,74.1,72.0,29.85,NNW,336,0.0,-999.0,92,-99.99,,,0.00,weatherlink.com 1.10,2013-08-28 10:56:00,
2013-08-28 06:11:00,74.1,72.0,29.86,NNW,344,0.0,-999.0,93,-99.99,,,0.00,weatherlink.com 1.10,2013-08-28 11:11:00,
2013-08-28 06:26:00,73.9,72.0,29.86,NW,319,0.0,-999.0,93,-99.99,,,0.00,weatherlink.com 1.10,2013-08-28 11:26:00,
2013-08-28 06:41:00,73.8,72.0,29.87,NW,319,0.0,-999.0,94,-99.99,,,0.00,weatherlink.com 1.10,2013-08-28 11:41:00,
2013-08-28 06:56:00,73.3,72.0,29.87,NW,319,0.0,-999.0,94,-99.99,,,0.00,weatherlink.com 1.10,2013-08-28 11:56:00,
2013-08-28 07:11:00,73.1,71.0,29.88,NW,319,0.0,-999.0,94,-99.99,,,0.00,weatherlink.com 1.10,2013-08-28 12:11:00,
2013-08-28 07:26:00,72.9,71.0,29.88,NW,319,0.0,-999.0,95,-99.99,,,0.00,weatherlink.com 1.10,2013-08-28 12:26:00,
2013-08-28 07:41:00,72.8,71.0,29.89,NW,326,0.0,-999.0,95,-99.99,,,0.00,weatherlink.com 1.10,2013-08-28 12:41:00,
2013-08-28 07:56:00,72.8,71.0,29.89,NW,326,0.0,-999.0,95,-99.99,,,0.00,weatherlink.com 1.10,2013-08-28 12:56:00,
2013-08-28 08:11:00,72.8,71.0,29.89,WNW,288,0.0,-999.0,95,-99.99,,,0.00,weatherlink.com 1.10,2013-08-28 13:11:00,
2013-08-28 08:26:00,72.7,71.0,29.89,NNW,348,0.0,-999.0,94,-99.99,,,0.00,weatherlink.com 1.10,2013-08-28 13:26:00,
2013-08-28 08:41:00,72.7,71.0,29.90,NNW,348,0.0,-999.0,94,-99.99,,,0.00,weatherlink.com 1.10,2013-08-28 13:41:00,
2013-08-28 08:56:00,72.6,71.0,29.89,NNW,348,0.0,-999.0,94,-99.99,,,0.00,weatherlink.com 1.10,2013-08-28 13:56:00,
2013-08-28 09:11:00,72.7,71.0,29.90,NNW,348,0.0,-999.0,94,-99.99,,,0.00,weatherlink.com 1.10,2013-08-28 14:11:00,
2013-08-28 09:26:00,73.1,71.0,29.90,NNW,348,0.0,-999.0,94,-99.99,,,0.00,weatherlink.com 1.10,2013-08-28 14:26:00,
2013-08-28 09:41:00,73.4,71.0,29.90,North,2,0.0,-999.0,93,-99.99,,,0.00,weatherlink.com 1.10,2013-08-28 14:41:00,
2013-08-28 09:56:00,74.1,71.0,29.91,NNE,20,0.0,-999.0,91,-99.99,,,0.00,weatherlink.com 1.10,2013-08-28 14:56:00,
2013-08-28 10:11:00,74.6,71.0,29.91,NW,304,0.0,-999.0,88,-99.99,,,0.00,weatherlink.com 1.10,2013-08-28 15:11:00,
2013-08-28 10:26:00,74.9,71.0,29.91,WNW,301,0.0,-999.0,88,-99.99,,,0.00,weatherlink.com 1.10,2013-08-28 15:26:00,
2013-08-28 10:41:00,75.5,72.0,29.92,WNW,295,0.0,-999.0,88,-99.99,,,0.00,weatherlink.com 1.10,2013-08-28 15:41:00,
2013-08-28 10:56:00,75.8,72.0,29.92,NNE,28,0.0,-999.0,87,-99.99,,,0.00,weatherlink.com 1.10,2013-08-28 15:56:00,
2013-08-28 11:11:00,76.6,72.0,29.92,North,10,0.0,-999.0,85,-99.99,,,0.00,weatherlink.com 1.10,2013-08-28 16:11:00,
2013-08-28 11:26:00,77.2,72.0,29.92,NW,309,0.0,-999.0,83,-99.99,,,0.00,weatherlink.com 1.10,2013-08-28 16:26:00,
2013-08-28 11:56:00,78.2,73.0,29.93,North,357,0.0,-999.0,83,-99.99,,,0.00,weatherlink.com 1.10,2013-08-28 16:56:00,
2013-08-28 12:11:00,78.4,73.0,29.92,North,357,0.0,-999.0,82,-99.99,,,0.00,weatherlink.com 1.10,2013-08-28 17:11:00,
2013-08-28 12:26:00,79.5,74.0,29.92,NNE,14,2.0,-999.0,82,-99.99,,,0.00,weatherlink.com 1.10,2013-08-28 17:26:00,
2013-08-28 12:41:00,80.2,72.0,29.92,NW,325,0.0,-999.0,76,-99.99,,,0.00,weatherlink.com 1.10,2013-08-28 17:41:00,
2013-08-28 12:56:00,80.2,72.0,29.92,NW,325,0.0,-999.0,77,-99.99,,,0.00,weatherlink.com 1.10,2013-08-28 17:56:00,
2013-08-28 13:11:00,80.6,72.0,29.92,North,359,1.0,-999.0,76,-99.99,,,0.00,weatherlink.com 1.10,2013-08-28 18:11:00,
2013-08-28 13:26:00,81.5,74.0,29.92,West,278,0.0,-999.0,77,-99.99,,,0.00,weatherlink.com 1.10,2013-08-28 18:26:00,
2013-08-28 13:41:00,81.6,73.0,29.93,WNW,284,0.0,-999.0,75,-99.99,,,0.00,weatherlink.com 1.10,2013-08-28 18:41:00,
2013-08-28 13:56:00,81.7,73.0,29.92,NE,42,1.0,-999.0,76,-99.99,,,0.00,weatherlink.com 1.10,2013-08-28 18:56:00,
2013-08-28 14:11:00,83.7,73.0,29.92,WNW,287,0.0,-999.0,71,-99.99,,,0.00,weatherlink.com 1.10,2013-08-28 19:11:00,
2013-08-28 14:26:00,83.2,73.0,29.92,NW,307,0.0,-999.0,71,-99.99,,,0.00,weatherlink.com 1.10,2013-08-28 19:26:00,
2013-08-28 14:42:00,82.8,73.0,29.92,NNW,348,0.0,-999.0,71,-99.99,,,0.00,weatherlink.com 1.10,2013-08-28 19:42:00,
2013-08-28 14:57:00,82.2,72.0,29.92,WNW,302,1.0,-999.0,71,-99.99,,,0.00,weatherlink.com 1.10,2013-08-28 19:57:00,
2013-08-28 15:12:00,81.9,73.0,29.92,WNW,296,2.0,-999.0,75,-99.99,,,0.00,weatherlink.com 1.10,2013-08-28 20:12:00,
2013-08-28 15:27:00,81.3,72.0,29.93,NNE,24,0.0,-999.0,73,-99.99,,,0.00,weatherlink.com 1.10,2013-08-28 20:27:00,
2013-08-28 15:42:00,81.6,73.0,29.92,NE,55,0.0,-999.0,74,-99.99,,,0.00,weatherlink.com 1.10,2013-08-28 20:42:00,
2013-08-28 15:57:00,81.7,72.0,29.92,North,351,0.0,-999.0,73,-99.99,,,0.00,weatherlink.com 1.10,2013-08-28 20:57:00,
2013-08-28 16:12:00,81.6,73.0,29.92,WNW,287,0.0,-999.0,74,-99.99,,,0.00,weatherlink.com 1.10,2013-08-28 21:12:00,
2013-08-28 16:27:00,81.9,74.0,29.92,North,355,0.0,-999.0,76,-99.99,,,0.00,weatherlink.com 1.10,2013-08-28 21:27:00,
2013-08-28 16:42:00,82.2,73.0,29.93,NW,306,0.0,-999.0,74,-99.99,,,0.00,weatherlink.com 1.10,2013-08-28 21:42:00,
2013-08-28 16:57:00,82.7,72.0,29.93,WNW,287,0.0,-999.0,71,-99.99,,,0.00,weatherlink.com 1.10,2013-08-28 21:57:00,
2013-08-28 17:12:00,82.2,73.0,29.93,NNW,336,0.0,-999.0,73,-99.99,,,0.00,weatherlink.com 1.10,2013-08-28 22:12:00,
2013-08-28 17:27:00,81.9,72.0,29.93,North,352,0.0,-999.0,71,-99.99,,,0.00,weatherlink.com 1.10,2013-08-28 22:27:00,
2013-08-28 17:42:00,81.4,72.0,29.93,North,352,0.0,-999.0,73,-99.99,,,0.00,weatherlink.com 1.10,2013-08-28 22:42:00,
2013-08-28 17:57:00,81.1,72.0,29.93,North,5,0.0,-999.0,74,-99.99,,,0.00,weatherlink.com 1.10,2013-08-28 22:57:00,
2013-08-28 18:12:00,80.6,73.0,29.93,North,5,0.0,-999.0,77,-99.99,,,0.00,weatherlink.com 1.10,2013-08-28 23:12:00,
2013-08-28 18:27:00,79.9,73.0,29.93,North,5,0.0,-999.0,78,-99.99,,,0.00,weatherlink.com 1.10,2013-08-28 23:27:00,
2013-08-28 18:42:00,79.2,73.0,29.94,North,5,0.0,-999.0,80,-99.99,,,0.00,weatherlink.com 1.10,2013-08-28 23:42:00,
2013-08-28 18:57:00,78.5,73.0,29.93,North,5,0.0,-999.0,82,-99.99,,,0.00,weatherlink.com 1.10,2013-08-28 23:57:00,
2013-08-28 19:12:00,77.9,72.0,29.93,North,5,0.0,-999.0,83,-99.99,,,0.00,weatherlink.com 1.10,2013-08-29 00:12:00,
2013-08-28 19:27:00,77.4,72.0,29.94,North,5,0.0,-999.0,83,-99.99,,,0.00,weatherlink.com 1.10,2013-08-29 00:27:00,
2013-08-28 19:42:00,76.8,72.0,29.94,North,5,0.0,-999.0,84,-99.99,,,0.00,weatherlink.com 1.10,2013-08-29 00:42:00,
2013-08-28 19:57:00,76.2,71.0,29.95,North,5,0.0,-999.0,84,-99.99,,,0.00,weatherlink.com 1.10,2013-08-29 00:57:00,
2013-08-28 20:12:00,75.5,71.0,29.95,North,5,0.0,-999.0,85,-99.99,,,0.00,weatherlink.com 1.10,2013-08-29 01:12:00,
2013-08-28 20:27:00,74.9,71.0,29.95,North,5,0.0,-999.0,86,-99.99,,,0.00,weatherlink.com 1.10,2013-08-29 01:27:00,
2013-08-28 20:42:00,74.5,70.0,29.96,North,5,0.0,-999.0,86,-99.99,,,0.00,weatherlink.com 1.10,2013-08-29 01:42:00,
2013-08-28 20:57:00,74.0,70.0,29.96,North,5,0.0,-999.0,87,-99.99,,,0.00,weatherlink.com 1.10,2013-08-29 01:57:00,
2013-08-28 21:12:00,73.7,70.0,29.97,North,5,0.0,-999.0,88,-99.99,,,0.00,weatherlink.com 1.10,2013-08-29 02:12:00,
2013-08-28 21:27:00,73.3,70.0,29.97,North,5,0.0,-999.0,88,-99.99,,,0.00,weatherlink.com 1.10,2013-08-29 02:27:00,
2013-08-28 21:42:00,73.1,69.0,29.98,North,5,0.0,-999.0,88,-99.99,,,0.00,weatherlink.com 1.10,2013-08-29 02:42:00,
2013-08-28 21:57:00,73.0,70.0,29.98,North,5,0.0,-999.0,89,-99.99,,,0.00,weatherlink.com 1.10,2013-08-29 02:57:00,
2013-08-28 22:12:00,73.1,70.0,29.98,North,5,0.0,-999.0,90,-99.99,,,0.00,weatherlink.com 1.10,2013-08-29 03:12:00,
2013-08-28 22:27:00,73.1,70.0,29.98,North,5,0.0,-999.0,90,-99.99,,,0.00,weatherlink.com 1.10,2013-08-29 03:27:00,
2013-08-28 22:42:00,73.0,70.0,29.97,North,5,0.0,-999.0,89,-99.99,,,0.00,weatherlink.com 1.10,2013-08-29 03:42:00,
2013-08-28 22:57:00,73.0,70.0,29.97,North,5,0.0,-999.0,90,-99.99,,,0.00,weatherlink.com 1.10,2013-08-29 03:57:00,
2013-08-28 23:12:00,72.7,70.0,29.97,North,5,0.0,-999.0,90,-99.99,,,0.00,weatherlink.com 1.10,2013-08-29 04:12:00,
2013-08-28 23:27:00,72.5,70.0,29.97,North,5,0.0,-999.0,90,-99.99,,,0.00,weatherlink.com 1.10,2013-08-29 04:27:00,
2013-08-28 23:42:00,72.2,69.0,29.97,North,5,0.0,-999.0,90,-99.99,,,0.00,weatherlink.com 1.10,2013-08-29 04:42:00,
2013-08-28 23:57:00,71.9,69.0,29.97,North,5,0.0,-999.0,89,-99.99,,,0.00,weatherlink.com 1.10,2013-08-29 04:57:00,